FNLU/LAD METAR and TAF weather

Enter ICAO airport designator
Station Type Date Time Source
FNLU METAR 2019/12/07 10:00 UTC NOAA

FNLU 071000Z 27007KT 9999 FEW020 31/20 Q1011 NOSIG


Station Type Date Time Source
FNLU Decoded METAR 2019/12/07 10:00 UTC NOAA

Luanda, Angola (FNLU) 08-51S 013-14E 70M
Dec 07, 2019 - 05:00 AM EST / 2019.12.07 1000 UTC
Wind: from the W (270 degrees) at 8 MPH (7 KT):0
Visibility: greater than 7 mile(s):0
Sky conditions: mostly clear
Temperature: 87 F (31 C)
Dew Point: 68 F (20 C)
Relative Humidity: 52%
Pressure (altimeter): 29.85 in. Hg (1011 hPa)
ob: FNLU 071000Z 27007KT 9999 FEW020 31/20 Q1011 NOSIG
cycle: 10

Station Type Date Time Source
FNLU TAF 2019/12/07 06:12 UTC NOAA

TAF TAF FNLU 070500Z 0706/0812 16006KT 9999 SCT020
BECMG 0710/0712 28010KT FEW022 FEW025CB
BECMG 0717/0719 21006KT BKN022 PROB30
TEMPO 0801/0805 15005KT 8000 BKN022

Example: see airport list